This is the latest recevied weather packets stored in our database for station/object HF3P-11. If no packets are shown the sender has not sent any weather packets the latest 10 day(s).
| Time | Temp. | Humidity | Pressure | Rain* | Wind** | Luminosity | Snow |
|---|---|---|---|---|---|---|---|
| 1777692003 | 6.11° C | 80% | 1017.3 hPa | 0 mm | - | - | - |
| 1777691695 | 6.11° C | 80% | 1017.3 hPa | 0 mm | - | - | - |
| 1777691402 | 6.11° C | 80% | 1017.2 hPa | 0 mm | - | - | - |
| 1777691096 | 6.11° C | 80% | 1017.4 hPa | 0 mm | - | - | - |
| 1777690803 | 6.11° C | 80% | 1017.4 hPa | 0 mm | - | - | - |
| 1777690495 | 6.11° C | 80% | 1017.1 hPa | 0 mm | - | - | - |
| 1777690202 | 6.11° C | 80% | 1017.3 hPa | 0 mm | - | - | - |
| 1777689895 | 6.11° C | 80% | 1017.3 hPa | 0 mm | - | - | - |
| 1777689603 | 6.11° C | 79% | 1017.3 hPa | 0 mm | - | - | - |
| 1777689295 | 6.11° C | 79% | 1017.4 hPa | 0 mm | - | - | - |
| 1777689002 | 6.11° C | 79% | 1017.5 hPa | 0 mm | - | - | - |
| 1777688703 | 6.67° C | 79% | 1017.5 hPa | 0 mm | - | - | - |
| 1777674300 | 10° C | 63% | 1018.1 hPa | 0 mm | - | - | - |
| 1777671296 | 10.56° C | 62% | 1018.1 hPa | 0 mm | - | - | - |
| 1777669495 | 11.11° C | 59% | 1017.9 hPa | 0 mm | - | - | - |
| 1777667696 | 11.67° C | 57% | 1017.8 hPa | 0 mm | - | - | - |
| 1777665304 | 13.33° C | 53% | 1017.8 hPa | 0 mm | - | - | - |
| 1777664996 | 13.33° C | 53% | 1017.9 hPa | 0 mm | - | - | - |
| 1777663196 | 14.44° C | 50% | 1017.9 hPa | 0 mm | - | - | - |
| 1777662296 | 15° C | 47% | 1017.9 hPa | 0 mm | - | - | - |
| 1777661703 | 15.56° C | 47% | 1017.9 hPa | 0 mm | - | - | - |
| 1777660503 | 16.67° C | 43% | 1017.8 hPa | 0 mm | - | - | - |
| 1777659303 | 18.33° C | 39% | 1017.6 hPa | 0 mm | - | - | - |
| 1777658996 | 18.33° C | 38% | 1017.5 hPa | 0 mm | - | - | - |
| 1777658096 | 19.44° C | 35% | 1017.4 hPa | 0 mm | - | - | - |
* Rain latest hour (hover to see other rain measurements)
** Current wind speed in m/s (hover to see current wind gust speed)